createdAt,value
2022-10-26T00:01:07.824Z,60.44
2022-10-26T00:03:37.088Z,60.64
2022-10-26T00:06:10.644Z,60.66
2022-10-26T00:08:39.186Z,60.67
2022-10-26T00:11:07.930Z,60.98
2022-10-26T00:13:37.006Z,60.30
2022-10-26T00:16:11.596Z,60.28
2022-10-26T00:18:39.833Z,60.63
2022-10-26T00:21:09.774Z,61.33
2022-10-26T00:23:38.105Z,60.59
2022-10-26T00:26:07.809Z,60.76
2022-10-26T00:28:36.149Z,60.31
2022-10-26T00:31:06.218Z,60.58
2022-10-26T00:33:36.037Z,60.82
2022-10-26T00:36:04.097Z,60.82
2022-10-26T00:38:32.202Z,60.98
2022-10-26T00:41:00.362Z,61.20
2022-10-26T00:43:39.893Z,60.49
2022-10-26T00:46:14.960Z,60.48
2022-10-26T00:48:51.725Z,59.76
2022-10-26T00:51:26.738Z,59.66
2022-10-26T00:53:56.414Z,59.40
2022-10-26T00:56:25.244Z,59.21
2022-10-26T00:58:53.754Z,59.11
2022-10-26T01:01:21.975Z,58.96
2022-10-26T01:03:51.670Z,59.71
2022-10-26T01:06:20.324Z,60.12
2022-10-26T01:08:49.979Z,60.30
2022-10-26T01:11:18.156Z,60.77
2022-10-26T01:13:49.707Z,60.85
2022-10-26T01:16:32.010Z,60.98
2022-10-26T01:19:18.513Z,60.10
2022-10-26T01:21:55.955Z,60.17
2022-10-26T01:24:58.462Z,60.53
2022-10-26T01:27:32.587Z,61.11
2022-10-26T01:30:21.552Z,61.27
2022-10-26T01:33:04.882Z,61.84
2022-10-26T01:35:40.707Z,62.04
2022-10-26T01:38:13.191Z,61.76
2022-10-26T01:40:46.587Z,61.53
2022-10-26T01:43:17.146Z,61.28
2022-10-26T01:45:48.970Z,60.79
2022-10-26T01:48:20.233Z,60.48
2022-10-26T01:50:53.297Z,60.56
2022-10-26T01:53:22.472Z,60.08
2022-10-26T01:55:52.562Z,59.92
2022-10-26T01:59:04.764Z,60.02
2022-10-26T02:02:08.144Z,60.07
2022-10-26T02:04:51.088Z,59.98
2022-10-26T02:07:25.108Z,60.16
2022-10-26T02:10:01.926Z,60.26
2022-10-26T02:12:38.330Z,60.23
2022-10-26T02:15:11.489Z,59.77
2022-10-26T02:17:48.175Z,59.75
2022-10-26T02:20:23.547Z,59.47
2022-10-26T02:22:54.144Z,59.45
2022-10-26T02:25:27.406Z,59.44
2022-10-26T02:27:59.366Z,59.50
2022-10-26T02:30:28.158Z,59.59
2022-10-26T02:32:59.031Z,59.50
2022-10-26T02:35:32.679Z,59.38
2022-10-26T02:38:03.262Z,58.94
2022-10-26T02:40:32.823Z,58.92
2022-10-26T02:43:05.748Z,58.72
2022-10-26T02:45:40.308Z,58.25
2022-10-26T02:48:08.770Z,58.41
2022-10-26T02:50:50.602Z,58.69
2022-10-26T02:53:25.563Z,58.90
2022-10-26T02:55:53.934Z,59.17
2022-10-26T02:58:27.331Z,59.54
2022-10-26T03:00:55.986Z,59.46
2022-10-26T03:03:24.285Z,59.60
2022-10-26T03:05:53.895Z,59.17
2022-10-26T03:08:22.110Z,59.33
2022-10-26T03:10:50.188Z,59.08
2022-10-26T03:13:19.300Z,58.62
2022-10-26T03:15:47.513Z,58.06
2022-10-26T03:18:15.569Z,57.42
2022-10-26T03:20:45.957Z,57.09
2022-10-26T03:23:15.409Z,56.15
2022-10-26T03:25:43.473Z,55.70
2022-10-26T03:28:11.497Z,55.79
2022-10-26T03:30:39.749Z,55.85
2022-10-26T03:33:07.896Z,55.95
2022-10-26T03:35:36.200Z,55.91
2022-10-26T03:38:04.513Z,56.05
2022-10-26T03:40:36.442Z,56.24
2022-10-26T03:43:05.346Z,56.55
2022-10-26T03:45:33.868Z,56.32
2022-10-26T03:48:01.987Z,56.90
2022-10-26T03:50:30.161Z,56.97
2022-10-26T03:52:58.758Z,57.22
2022-10-26T03:55:26.877Z,57.41
2022-10-26T03:57:56.348Z,57.60
2022-10-26T04:00:24.485Z,57.84
2022-10-26T04:02:56.931Z,57.92
2022-10-26T04:05:27.346Z,58.16
2022-10-26T04:07:56.232Z,59.13
2022-10-26T04:10:24.674Z,59.32
2022-10-26T04:12:53.309Z,59.26
2022-10-26T04:15:23.687Z,59.47
2022-10-26T04:17:57.953Z,59.61
2022-10-26T04:20:27.608Z,59.95
2022-10-26T04:22:59.889Z,59.58
2022-10-26T04:25:30.222Z,59.68
2022-10-26T04:28:01.036Z,59.55
2022-10-26T04:30:31.118Z,59.76
2022-10-26T04:32:59.358Z,60.25
2022-10-26T04:35:27.968Z,60.63
2022-10-26T04:37:59.306Z,61.30
2022-10-26T04:40:27.710Z,61.50
2022-10-26T04:42:55.886Z,61.28
2022-10-26T04:45:28.293Z,60.56
2022-10-26T04:48:07.954Z,60.60
2022-10-26T04:50:36.460Z,61.00
2022-10-26T04:53:06.126Z,61.70
2022-10-26T04:55:34.793Z,61.61
2022-10-26T04:58:03.255Z,62.05
2022-10-26T05:00:32.943Z,62.78
2022-10-26T05:03:01.576Z,63.44
2022-10-26T05:05:33.775Z,63.68
2022-10-26T05:08:02.076Z,63.76
2022-10-26T05:10:30.206Z,63.78
2022-10-26T05:13:00.441Z,63.55
2022-10-26T05:15:28.847Z,63.58
2022-10-26T05:17:58.389Z,63.31
2022-10-26T05:20:30.346Z,63.05
2022-10-26T05:23:02.237Z,62.90
2022-10-26T05:25:32.148Z,62.40
2022-10-26T05:28:00.781Z,62.12
2022-10-26T05:30:29.839Z,62.08
2022-10-26T05:32:59.092Z,61.89
2022-10-26T05:35:28.199Z,62.13
2022-10-26T05:37:56.551Z,62.14
2022-10-26T05:40:27.807Z,62.31
2022-10-26T05:43:01.438Z,62.06
2022-10-26T05:45:29.958Z,61.99
2022-10-26T05:48:01.755Z,62.21
2022-10-26T05:50:31.974Z,62.01
2022-10-26T05:53:00.035Z,61.81
2022-10-26T05:55:30.492Z,61.26
2022-10-26T05:58:00.183Z,61.62
2022-10-26T06:00:30.526Z,61.30
2022-10-26T06:03:11.014Z,60.94
2022-10-26T06:05:52.568Z,60.92
2022-10-26T06:08:21.439Z,60.77
2022-10-26T06:10:51.662Z,60.70
2022-10-26T06:13:20.309Z,60.68
2022-10-26T06:16:03.120Z,60.23
2022-10-26T06:18:40.977Z,60.20
2022-10-26T06:21:26.762Z,60.08
2022-10-26T06:24:00.537Z,59.78
2022-10-26T06:26:41.947Z,59.83
2022-10-26T06:29:20.081Z,59.47
2022-10-26T06:31:49.134Z,59.04
2022-10-26T06:34:27.569Z,58.93
2022-10-26T06:36:57.965Z,58.84
2022-10-26T06:39:29.560Z,58.57
2022-10-26T06:42:00.351Z,57.94
2022-10-26T06:44:29.092Z,57.72
2022-10-26T06:47:06.131Z,56.93
2022-10-26T06:49:37.670Z,56.50
2022-10-26T06:52:14.851Z,55.99
2022-10-26T06:54:50.000Z,56.17
2022-10-26T06:57:21.594Z,56.17
2022-10-26T06:59:53.469Z,55.27
2022-10-26T07:02:22.184Z,54.94
2022-10-26T07:04:50.310Z,54.22
2022-10-26T07:07:21.207Z,54.30
2022-10-26T07:09:50.207Z,53.30
2022-10-26T07:12:19.934Z,53.34
2022-10-26T07:14:48.090Z,53.53
2022-10-26T07:17:17.149Z,53.29
2022-10-26T07:19:45.790Z,53.25
2022-10-26T07:22:13.908Z,52.38
2022-10-26T07:24:42.021Z,52.89
2022-10-26T07:27:10.103Z,52.67
2022-10-26T07:29:39.789Z,52.08
2022-10-26T07:32:07.973Z,51.94
2022-10-26T07:34:36.067Z,51.45
2022-10-26T07:37:05.055Z,51.75
2022-10-26T07:39:33.284Z,51.73
2022-10-26T07:42:01.343Z,51.62
2022-10-26T07:44:29.587Z,51.41
2022-10-26T07:46:59.491Z,51.25
2022-10-26T07:49:28.016Z,51.25
2022-10-26T07:51:57.098Z,51.51
2022-10-26T07:54:26.141Z,52.13
2022-10-26T07:56:54.367Z,51.51
2022-10-26T07:59:22.568Z,51.53
2022-10-26T08:01:50.882Z,51.20
2022-10-26T08:04:20.972Z,50.50
2022-10-26T08:06:49.723Z,50.68
2022-10-26T08:09:18.427Z,50.95
2022-10-26T08:11:46.709Z,49.55
2022-10-26T08:14:15.270Z,49.19
2022-10-26T08:16:43.457Z,49.25
2022-10-26T08:19:12.423Z,49.31
2022-10-26T08:21:41.927Z,49.44
2022-10-26T08:24:10.328Z,48.88
2022-10-26T08:26:38.435Z,49.35
2022-10-26T08:29:06.518Z,49.38
2022-10-26T08:31:35.232Z,48.40
2022-10-26T08:34:04.505Z,48.78
2022-10-26T08:36:32.717Z,48.59
2022-10-26T08:39:02.547Z,47.81
2022-10-26T08:41:37.988Z,47.28
2022-10-26T08:44:16.476Z,47.60
2022-10-26T08:46:49.541Z,47.16
2022-10-26T08:49:26.192Z,46.32
2022-10-26T08:51:59.305Z,46.30
2022-10-26T08:54:39.282Z,45.69
2022-10-26T08:57:17.927Z,45.63
2022-10-26T08:59:52.415Z,45.52
2022-10-26T09:02:21.697Z,44.33
2022-10-26T09:04:49.810Z,44.98
2022-10-26T09:07:35.916Z,45.12
2022-10-26T09:10:16.794Z,42.79
2022-10-26T09:12:53.736Z,43.13
2022-10-26T09:15:30.102Z,43.56
2022-10-26T09:18:04.806Z,43.43
2022-10-26T09:20:57.437Z,42.04
2022-10-26T09:23:55.497Z,42.22
2022-10-26T09:26:33.517Z,42.60
2022-10-26T09:29:06.407Z,42.80
2022-10-26T09:31:44.670Z,42.05
2022-10-26T09:34:21.380Z,41.45
2022-10-26T09:36:55.661Z,41.71
2022-10-26T09:39:31.456Z,41.38
2022-10-26T09:42:09.004Z,40.36
2022-10-26T09:44:40.811Z,39.42
2022-10-26T09:47:19.244Z,39.91
2022-10-26T09:49:50.807Z,39.56
2022-10-26T09:52:19.068Z,38.47
2022-10-26T09:54:47.059Z,38.88
2022-10-26T09:57:19.670Z,38.76
2022-10-26T09:59:50.076Z,38.81
2022-10-26T10:02:40.352Z,38.55
2022-10-26T10:05:49.840Z,38.35
2022-10-26T10:08:23.675Z,38.22
2022-10-26T10:11:00.742Z,38.52
2022-10-26T10:13:36.317Z,37.86
2022-10-26T10:16:09.397Z,38.40
2022-10-26T10:18:39.258Z,37.76
2022-10-26T10:21:10.160Z,38.16
2022-10-26T10:23:47.809Z,38.39
2022-10-26T10:26:15.853Z,37.74
2022-10-26T10:28:57.106Z,38.17
2022-10-26T10:31:31.097Z,38.20
2022-10-26T10:34:00.370Z,38.25
2022-10-26T10:36:31.753Z,37.75
2022-10-26T10:39:00.735Z,37.69
2022-10-26T10:41:32.490Z,38.18
2022-10-26T10:44:09.128Z,38.42
2022-10-26T10:46:38.872Z,37.00
2022-10-26T10:49:18.249Z,37.50
2022-10-26T10:51:46.450Z,36.81
2022-10-26T10:54:26.326Z,37.15
2022-10-26T10:56:56.997Z,37.75
2022-10-26T10:59:51.503Z,37.76
2022-10-26T11:02:52.194Z,36.63
2022-10-26T11:05:55.712Z,36.67
2022-10-26T11:08:30.739Z,36.98
2022-10-26T11:11:04.153Z,35.87
2022-10-26T11:13:38.001Z,35.25
2022-10-26T11:16:14.304Z,36.11
2022-10-26T11:18:47.118Z,36.45
2022-10-26T11:21:23.910Z,36.58
2022-10-26T11:23:55.832Z,36.47
2022-10-26T11:26:28.632Z,36.32
2022-10-26T11:29:00.986Z,35.67
2022-10-26T11:31:39.772Z,34.98
2022-10-26T11:34:18.698Z,35.30
2022-10-26T11:36:58.119Z,35.12
2022-10-26T11:39:38.964Z,35.70
2022-10-26T11:42:20.204Z,36.06
2022-10-26T11:44:54.934Z,34.99
2022-10-26T11:47:30.656Z,35.56
2022-10-26T11:50:08.073Z,35.24
2022-10-26T11:52:41.873Z,35.22
2022-10-26T11:55:12.286Z,35.11
2022-10-26T11:57:42.095Z,34.28
2022-10-26T12:00:18.376Z,34.24
2022-10-26T12:02:52.286Z,34.46
2022-10-26T12:05:26.695Z,34.45
2022-10-26T12:07:59.056Z,34.55
2022-10-26T12:10:30.635Z,34.82
2022-10-26T12:13:12.602Z,34.15
2022-10-26T12:16:02.477Z,34.03
2022-10-26T12:18:57.253Z,34.18
2022-10-26T12:21:29.232Z,34.12
2022-10-26T12:23:59.888Z,34.50
2022-10-26T12:26:52.381Z,34.64
2022-10-26T12:29:37.105Z,35.30
2022-10-26T12:32:26.994Z,33.95
2022-10-26T12:35:02.956Z,33.81
2022-10-26T12:37:36.826Z,33.78
2022-10-26T12:40:41.121Z,34.39
2022-10-26T12:43:38.819Z,34.88
2022-10-26T12:46:43.605Z,35.06
2022-10-26T12:49:59.024Z,35.09
2022-10-26T12:52:53.998Z,35.42
2022-10-26T12:55:47.345Z,35.04
2022-10-26T12:58:47.251Z,35.58
2022-10-26T13:01:32.935Z,35.34
2022-10-26T13:04:18.348Z,35.73
2022-10-26T13:07:01.625Z,35.13
2022-10-26T13:09:34.233Z,34.85
2022-10-26T13:12:04.861Z,35.47
2022-10-26T13:14:37.297Z,34.95
2022-10-26T13:17:07.145Z,35.32
2022-10-26T13:19:42.503Z,35.29
2022-10-26T13:22:17.296Z,35.47
2022-10-26T13:24:53.455Z,35.60
2022-10-26T13:27:44.364Z,35.64
2022-10-26T13:30:23.072Z,35.74
2022-10-26T13:32:54.886Z,35.49
2022-10-26T13:35:25.874Z,35.83
2022-10-26T13:37:56.245Z,35.31
2022-10-26T13:40:28.806Z,35.00
2022-10-26T13:42:59.784Z,35.51
2022-10-26T13:45:30.057Z,36.04
2022-10-26T13:48:06.371Z,35.71
2022-10-26T13:50:39.260Z,35.34
2022-10-26T13:53:14.512Z,35.43
2022-10-26T13:55:49.938Z,35.55
2022-10-26T13:58:25.909Z,35.56
2022-10-26T14:01:05.953Z,35.02
2022-10-26T14:03:34.190Z,35.05
2022-10-26T14:06:05.668Z,35.46
2022-10-26T14:08:33.929Z,35.68
2022-10-26T14:11:04.457Z,35.87
2022-10-26T14:13:39.049Z,35.48
2022-10-26T14:16:14.375Z,35.87
2022-10-26T14:18:46.105Z,35.55
2022-10-26T14:21:17.779Z,36.07
2022-10-26T14:23:52.409Z,35.69
2022-10-26T14:26:24.470Z,35.89
2022-10-26T14:28:56.182Z,35.39
2022-10-26T14:31:29.185Z,35.53
2022-10-26T14:33:59.800Z,34.86
2022-10-26T14:36:32.293Z,35.13
2022-10-26T14:39:04.284Z,35.40
2022-10-26T14:41:37.141Z,35.56
2022-10-26T14:44:05.750Z,35.27
2022-10-26T14:46:37.450Z,35.89
2022-10-26T14:49:06.133Z,35.65
2022-10-26T14:51:37.053Z,35.74
2022-10-26T14:54:05.739Z,35.84
2022-10-26T14:56:43.428Z,36.21
2022-10-26T14:59:14.277Z,36.14
2022-10-26T15:01:54.469Z,36.38
2022-10-26T15:04:33.818Z,36.61
2022-10-26T15:07:18.222Z,36.45
2022-10-26T15:09:48.230Z,36.89
2022-10-26T15:12:23.845Z,36.96
2022-10-26T15:14:53.299Z,37.37
2022-10-26T15:17:27.698Z,37.43
2022-10-26T15:19:57.955Z,37.65
2022-10-26T15:22:31.995Z,37.77
2022-10-26T15:25:03.969Z,37.93
2022-10-26T15:27:35.765Z,38.07
2022-10-26T15:30:20.503Z,38.12
2022-10-26T15:32:52.785Z,38.50
2022-10-26T15:35:28.623Z,38.74
2022-10-26T15:38:02.248Z,38.95
2022-10-26T15:40:32.514Z,39.04
2022-10-26T15:43:03.349Z,39.50
2022-10-26T15:45:35.079Z,40.13
2022-10-26T15:48:20.570Z,40.61
2022-10-26T15:50:48.626Z,40.84
2022-10-26T15:53:21.442Z,40.77
2022-10-26T15:55:51.263Z,41.28
2022-10-26T15:58:20.789Z,41.93
2022-10-26T16:00:49.117Z,42.55
2022-10-26T16:03:20.187Z,42.31
2022-10-26T16:05:48.764Z,42.64
2022-10-26T16:08:18.778Z,42.65
2022-10-26T16:10:48.503Z,43.23
2022-10-26T16:13:16.999Z,43.05
2022-10-26T16:15:46.891Z,43.37
2022-10-26T16:18:15.739Z,43.74
2022-10-26T16:20:48.347Z,43.88
2022-10-26T16:23:18.002Z,44.08
2022-10-26T16:25:47.849Z,44.18
2022-10-26T16:28:17.766Z,44.06
2022-10-26T16:30:47.255Z,44.36
2022-10-26T16:33:15.520Z,44.18
2022-10-26T16:35:43.628Z,44.28
2022-10-26T16:38:11.734Z,44.57
2022-10-26T16:40:42.621Z,44.37
2022-10-26T16:43:10.738Z,44.72
2022-10-26T16:45:41.767Z,44.67
2022-10-26T16:48:15.328Z,44.83
2022-10-26T16:50:43.398Z,44.91
2022-10-26T16:53:11.413Z,44.88
2022-10-26T16:55:39.525Z,44.98
2022-10-26T16:58:07.660Z,45.37
2022-10-26T17:00:36.685Z,45.46
2022-10-26T17:03:05.089Z,45.26
2022-10-26T17:05:34.540Z,45.70
2022-10-26T17:08:02.659Z,45.80
2022-10-26T17:10:30.708Z,45.99
2022-10-26T17:13:00.001Z,46.06
2022-10-26T17:15:29.064Z,46.44
2022-10-26T17:20:26.309Z,46.92
2022-10-26T17:22:58.245Z,47.42
2022-10-26T17:25:26.365Z,47.66
2022-10-26T17:27:54.406Z,47.40
2022-10-26T17:30:23.423Z,47.42
2022-10-26T17:32:52.094Z,47.67
2022-10-26T17:35:20.502Z,47.95
2022-10-26T17:37:48.958Z,48.19
2022-10-26T17:40:18.771Z,48.04
2022-10-26T17:42:46.933Z,48.36
2022-10-26T17:45:15.045Z,48.24
2022-10-26T17:47:43.044Z,48.65
2022-10-26T17:50:11.659Z,49.27
2022-10-26T17:52:39.813Z,49.37
2022-10-26T17:55:08.347Z,49.26
2022-10-26T17:57:37.952Z,49.64
2022-10-26T18:00:06.864Z,49.64
2022-10-26T18:02:38.104Z,50.68
2022-10-26T18:05:07.806Z,50.59
2022-10-26T18:07:36.070Z,49.93
2022-10-26T18:10:13.870Z,50.56
2022-10-26T18:12:54.174Z,50.40
2022-10-26T18:15:24.228Z,49.96
2022-10-26T18:17:56.862Z,49.50
2022-10-26T18:20:27.895Z,50.35
2022-10-26T18:22:56.748Z,51.14
2022-10-26T18:25:25.016Z,50.51
2022-10-26T18:27:54.983Z,50.70
2022-10-26T18:30:23.162Z,50.92
2022-10-26T18:32:52.142Z,51.54
2022-10-26T18:35:20.774Z,51.67
2022-10-26T18:37:49.261Z,51.78
2022-10-26T18:40:17.595Z,52.23
2022-10-26T18:42:46.056Z,52.67
2022-10-26T18:45:15.871Z,52.61
2022-10-26T18:47:43.903Z,53.34
2022-10-26T18:50:12.005Z,53.39
2022-10-26T18:52:40.106Z,53.50
2022-10-26T18:55:09.564Z,53.91
2022-10-26T18:57:37.678Z,54.56
2022-10-26T19:00:08.702Z,54.61
2022-10-26T19:02:38.404Z,54.40
2022-10-26T19:05:07.682Z,54.38
2022-10-26T19:07:37.912Z,54.87
2022-10-26T19:10:06.886Z,54.97
2022-10-26T19:12:34.940Z,55.14
2022-10-26T19:15:03.074Z,55.44
2022-10-26T19:17:31.360Z,55.42
2022-10-26T19:20:01.012Z,55.79
2022-10-26T19:22:29.190Z,56.15
2022-10-26T19:24:57.255Z,56.06
2022-10-26T19:27:26.055Z,56.19
2022-10-26T19:29:54.247Z,56.38
2022-10-26T19:32:22.885Z,56.33
2022-10-26T19:34:50.951Z,56.31
2022-10-26T19:37:21.924Z,56.87
2022-10-26T19:39:51.748Z,57.17
2022-10-26T19:42:20.086Z,57.88
2022-10-26T19:44:48.214Z,58.92
2022-10-26T19:47:16.459Z,59.77
2022-10-26T19:49:44.617Z,59.54
2022-10-26T19:52:12.766Z,60.06
2022-10-26T19:54:42.332Z,60.55
2022-10-26T19:57:10.361Z,60.87
2022-10-26T19:59:38.531Z,60.84
2022-10-26T20:02:06.601Z,61.48
2022-10-26T20:04:34.647Z,61.97
2022-10-26T20:07:03.197Z,61.92
2022-10-26T20:09:32.591Z,62.30
2022-10-26T20:12:02.645Z,62.73
2022-10-26T20:14:30.858Z,63.25
2022-10-26T20:16:58.903Z,63.51
2022-10-26T20:19:27.140Z,64.26
2022-10-26T20:21:55.265Z,64.28
2022-10-26T20:24:23.317Z,63.81
2022-10-26T20:26:51.497Z,63.74
2022-10-26T20:29:21.755Z,63.42
2022-10-26T20:31:53.762Z,62.27
2022-10-26T20:34:23.991Z,61.77
2022-10-26T20:36:52.107Z,61.70
2022-10-26T20:39:20.899Z,61.62
2022-10-26T20:41:49.456Z,61.81
2022-10-26T20:44:24.504Z,61.28
2022-10-26T20:46:53.470Z,61.74
2022-10-26T20:49:22.160Z,61.53
2022-10-26T20:52:19.947Z,61.78
2022-10-26T20:54:48.168Z,62.17
2022-10-26T20:57:20.571Z,61.95
2022-10-26T20:59:54.105Z,61.42
2022-10-26T21:02:22.648Z,61.38
2022-10-26T21:04:51.787Z,61.90
2022-10-26T21:07:19.848Z,61.99
2022-10-26T21:09:47.985Z,62.36
2022-10-26T21:12:16.095Z,62.99
2022-10-26T21:14:44.160Z,62.45
2022-10-26T21:17:13.680Z,62.20
2022-10-26T21:19:42.475Z,62.71
2022-10-26T21:22:10.540Z,62.30
2022-10-26T21:24:38.585Z,62.52
2022-10-26T21:27:06.673Z,62.67
2022-10-26T21:29:34.706Z,63.17
2022-10-26T21:32:02.799Z,63.51
2022-10-26T21:34:32.300Z,63.74
2022-10-26T21:37:00.349Z,63.96
2022-10-26T21:39:28.604Z,64.35
2022-10-26T21:41:56.662Z,65.06
2022-10-26T21:44:40.067Z,65.12
2022-10-26T21:47:09.586Z,65.02
2022-10-26T21:49:39.335Z,65.32
2022-10-26T21:52:08.404Z,65.61
2022-10-26T21:54:36.477Z,66.16
2022-10-26T21:57:04.533Z,66.45
2022-10-26T21:59:32.578Z,66.89
2022-10-26T22:02:00.828Z,67.31
2022-10-26T22:04:28.892Z,68.25
2022-10-26T22:06:58.323Z,69.06
2022-10-26T22:09:26.472Z,69.37
2022-10-26T22:11:54.538Z,70.85
2022-10-26T22:14:22.824Z,70.66
2022-10-26T22:16:50.895Z,71.31
2022-10-26T22:19:18.963Z,70.95
2022-10-26T22:21:46.977Z,71.01
2022-10-26T22:24:16.802Z,71.06
2022-10-26T22:26:44.877Z,71.34
2022-10-26T22:29:12.932Z,71.39
2022-10-26T22:31:41.702Z,71.74
2022-10-26T22:34:15.466Z,72.59
2022-10-26T22:36:43.599Z,73.19
2022-10-26T22:39:11.678Z,73.45
2022-10-26T22:41:41.189Z,74.46
2022-10-26T22:44:09.486Z,74.90
2022-10-26T22:46:37.517Z,74.65
2022-10-26T22:49:05.591Z,75.39
2022-10-26T22:51:35.842Z,75.39
2022-10-26T22:54:05.775Z,75.59
2022-10-26T22:56:36.407Z,75.67
2022-10-26T22:59:08.817Z,76.29
2022-10-26T23:01:41.807Z,76.74
2022-10-26T23:04:12.898Z,77.13
2022-10-26T23:06:41.580Z,77.43
2022-10-26T23:09:09.875Z,77.89
2022-10-26T23:11:37.940Z,77.91
2022-10-26T23:14:07.469Z,77.86
2022-10-26T23:16:35.484Z,78.06
2022-10-26T23:19:03.548Z,77.75
2022-10-26T23:21:31.681Z,77.66
2022-10-26T23:23:59.727Z,77.86
2022-10-26T23:26:27.833Z,77.59
2022-10-26T23:28:56.406Z,77.44
2022-10-26T23:31:27.866Z,77.58
2022-10-26T23:33:57.380Z,77.69
2022-10-26T23:36:25.848Z,78.11
2022-10-26T23:38:53.875Z,78.74
2022-10-26T23:41:22.172Z,78.60
2022-10-26T23:43:50.315Z,78.75
2022-10-26T23:46:18.415Z,79.17
2022-10-26T23:48:47.931Z,79.14
2022-10-26T23:51:18.641Z,79.11
2022-10-26T23:53:48.886Z,79.30
2022-10-26T23:56:16.949Z,77.88
2022-10-26T23:58:45.028Z,76.60
